Time,TemperatureF,DewpointF,PressureIn,WindDirection,WindDirectionDegrees,WindSpeedMPH,WindSpeedGustMPH,Humidity,HourlyPrecipIn,Conditions,Clouds,dailyrainin,SoftwareType,DateUTC
2013-05-03 00:01:00,26.0,9.0,-100.00,WNW,284,7.0,9.0,50,0.00,,,-99.99,,2013-05-03 06:01:00,
2013-05-03 00:11:00,25.0,10.0,-100.00,WNW,285,7.0,8.0,54,0.00,,,-99.99,,2013-05-03 06:11:00,
2013-05-03 00:21:00,24.0,11.0,-100.00,WNW,285,8.0,9.0,56,0.00,,,-99.99,,2013-05-03 06:21:00,
2013-05-03 00:32:00,24.0,10.0,-100.00,WNW,284,8.0,10.0,54,0.00,,,-99.99,,2013-05-03 06:32:00,
2013-05-03 00:42:00,24.0,9.0,-100.00,WNW,285,8.0,10.0,54,0.00,,,-99.99,,2013-05-03 06:42:00,
2013-05-03 00:51:00,24.0,9.0,-100.00,WNW,285,9.0,11.0,52,0.00,,,-99.99,,2013-05-03 06:51:00,
2013-05-03 01:01:00,25.0,9.0,-100.00,WNW,284,9.0,12.0,51,0.00,,,-99.99,,2013-05-03 07:01:00,
2013-05-03 01:11:00,25.0,9.0,-100.00,WNW,285,10.0,13.0,52,0.00,,,-99.99,,2013-05-03 07:11:00,
2013-05-03 01:21:00,24.0,10.0,-100.00,WNW,285,9.0,11.0,54,0.00,,,-99.99,,2013-05-03 07:21:00,
2013-05-03 01:31:00,24.0,10.0,-100.00,WNW,285,10.0,12.0,55,0.00,,,-99.99,,2013-05-03 07:31:00,
2013-05-03 01:42:00,24.0,10.0,-100.00,West,280,12.0,13.0,55,0.00,,,-99.99,,2013-05-03 07:42:00,
2013-05-03 01:52:00,24.0,10.0,-100.00,West,267,12.0,16.0,55,0.00,,,-99.99,,2013-05-03 07:52:00,
2013-05-03 02:01:00,24.0,10.0,-100.00,West,268,13.0,15.0,55,0.00,,,-99.99,,2013-05-03 08:01:00,
2013-05-03 02:11:00,23.0,10.0,-100.00,West,267,13.0,15.0,56,0.00,,,-99.99,,2013-05-03 08:11:00,
2013-05-03 02:21:00,23.0,10.0,-100.00,West,264,14.0,16.0,58,0.00,,,-99.99,,2013-05-03 08:21:00,
2013-05-03 02:31:00,23.0,11.0,-100.00,West,264,15.0,17.0,58,0.00,,,-99.99,,2013-05-03 08:31:00,
2013-05-03 02:42:00,23.0,11.0,-100.00,West,265,15.0,17.0,59,0.00,,,-99.99,,2013-05-03 08:42:00,
2013-05-03 02:52:00,24.0,11.0,-100.00,West,267,15.0,17.0,56,0.00,,,-99.99,,2013-05-03 08:52:00,
2013-05-03 03:01:00,23.0,11.0,-100.00,West,267,15.0,17.0,57,0.00,,,-99.99,,2013-05-03 09:01:00,
2013-05-03 03:11:00,23.0,11.0,-100.00,West,267,15.0,17.0,58,0.00,,,-99.99,,2013-05-03 09:11:00,
2013-05-03 03:21:00,24.0,10.0,-100.00,West,268,14.0,16.0,56,0.00,,,-99.99,,2013-05-03 09:21:00,
2013-05-03 03:32:00,24.0,10.0,-100.00,West,270,14.0,16.0,56,0.00,,,-99.99,,2013-05-03 09:32:00,
2013-05-03 03:42:00,24.0,10.0,-100.00,West,272,13.0,15.0,56,0.00,,,-99.99,,2013-05-03 09:42:00,
2013-05-03 03:52:00,24.0,10.0,-100.00,West,272,13.0,16.0,54,0.00,,,-99.99,,2013-05-03 09:52:00,
2013-05-03 04:02:00,25.0,10.0,-100.00,West,274,12.0,15.0,53,0.00,,,-99.99,,2013-05-03 10:02:00,
2013-05-03 04:12:00,24.0,10.0,-100.00,West,277,10.0,14.0,54,0.00,,,-99.99,,2013-05-03 10:12:00,
2013-05-03 04:22:00,23.0,9.0,-100.00,West,281,8.0,11.0,55,0.00,,,-99.99,,2013-05-03 10:22:00,
2013-05-03 04:32:00,23.0,10.0,-100.00,West,278,7.0,10.0,56,0.00,,,-99.99,,2013-05-03 10:32:00,
2013-05-03 04:42:00,23.0,10.0,-100.00,West,278,9.0,11.0,57,0.00,,,-99.99,,2013-05-03 10:42:00,
2013-05-03 04:52:00,23.0,10.0,-100.00,West,277,10.0,12.0,58,0.00,,,-99.99,,2013-05-03 10:52:00,
2013-05-03 05:02:00,22.0,10.0,-100.00,West,280,10.0,12.0,59,0.00,,,-99.99,,2013-05-03 11:02:00,
2013-05-03 05:11:00,22.0,10.0,-100.00,WNW,282,11.0,12.0,60,0.00,,,-99.99,,2013-05-03 11:11:00,
2013-05-03 05:22:00,22.0,11.0,-100.00,WNW,282,9.0,11.0,60,0.00,,,-99.99,,2013-05-03 11:22:00,
2013-05-03 05:31:00,23.0,10.0,-100.00,WNW,282,9.0,11.0,58,0.00,,,-99.99,,2013-05-03 11:31:00,
2013-05-03 05:42:00,23.0,10.0,-100.00,WNW,282,9.0,11.0,57,0.00,,,-99.99,,2013-05-03 11:42:00,
2013-05-03 05:51:00,22.0,10.0,-100.00,WNW,282,9.0,11.0,58,0.00,,,-99.99,,2013-05-03 11:51:00,
2013-05-03 06:01:00,22.0,10.0,-100.00,WNW,282,8.0,10.0,58,0.00,,,-99.99,,2013-05-03 12:01:00,
2013-05-03 06:11:00,23.0,10.0,-100.00,WNW,282,7.0,9.0,57,0.00,,,-99.99,,2013-05-03 12:11:00,
2013-05-03 06:21:00,22.0,10.0,-100.00,WNW,282,7.0,10.0,58,0.00,,,-99.99,,2013-05-03 12:21:00,
2013-05-03 06:32:00,24.0,10.0,-100.00,WNW,282,9.0,11.0,56,0.00,,,-99.99,,2013-05-03 12:32:00,
2013-05-03 06:42:00,23.0,10.0,-100.00,WNW,282,9.0,11.0,56,0.00,,,-99.99,,2013-05-03 12:42:00,
2013-05-03 06:51:00,24.0,10.0,-100.00,WNW,282,10.0,12.0,53,0.00,,,-99.99,,2013-05-03 12:51:00,
2013-05-03 07:01:00,25.0,10.0,-100.00,WNW,282,10.0,12.0,52,0.00,,,-99.99,,2013-05-03 13:01:00,
2013-05-03 07:11:00,25.0,10.0,-100.00,WNW,282,11.0,12.0,52,0.00,,,-99.99,,2013-05-03 13:11:00,
2013-05-03 07:22:00,25.0,10.0,-100.00,WNW,282,12.0,13.0,52,0.00,,,-99.99,,2013-05-03 13:22:00,
2013-05-03 07:32:00,26.0,10.0,-100.00,WNW,282,12.0,14.0,50,0.00,,,-99.99,,2013-05-03 13:32:00,
2013-05-03 07:42:00,26.0,10.0,-100.00,WNW,282,12.0,14.0,49,0.00,,,-99.99,,2013-05-03 13:42:00,
2013-05-03 07:52:00,27.0,10.0,-100.00,WNW,282,12.0,13.0,48,0.00,,,-99.99,,2013-05-03 13:52:00,
2013-05-03 08:02:00,27.0,10.0,-100.00,WNW,282,12.0,14.0,48,0.00,,,-99.99,,2013-05-03 14:02:00,
2013-05-03 08:11:00,28.0,10.0,-100.00,WNW,282,12.0,14.0,48,0.00,,,-99.99,,2013-05-03 14:11:00,
2013-05-03 08:21:00,28.0,11.0,-100.00,WNW,282,12.0,14.0,47,0.00,,,-99.99,,2013-05-03 14:21:00,
2013-05-03 08:32:00,29.0,11.0,-100.00,WNW,282,11.0,13.0,48,0.00,,,-99.99,,2013-05-03 14:32:00,
2013-05-03 08:42:00,29.0,12.0,-100.00,WNW,282,10.0,12.0,48,0.00,,,-99.99,,2013-05-03 14:42:00,
2013-05-03 08:52:00,30.0,11.0,-100.00,WNW,282,11.0,13.0,46,0.00,,,-99.99,,2013-05-03 14:52:00,
2013-05-03 09:01:00,30.0,12.0,-100.00,WNW,282,12.0,15.0,47,0.00,,,-99.99,,2013-05-03 15:01:00,
2013-05-03 09:11:00,31.0,12.0,-100.00,WNW,282,12.0,14.0,46,0.00,,,-99.99,,2013-05-03 15:11:00,
2013-05-03 09:22:00,31.0,13.0,-100.00,WNW,282,12.0,16.0,45,0.00,,,-99.99,,2013-05-03 15:22:00,
2013-05-03 09:32:00,32.0,14.0,-100.00,WNW,282,12.0,15.0,47,0.00,,,-99.99,,2013-05-03 15:32:00,
2013-05-03 09:43:00,32.0,14.0,-100.00,WNW,282,12.0,14.0,47,0.00,,,-99.99,,2013-05-03 15:43:00,
2013-05-03 09:53:00,33.0,14.0,-100.00,WNW,282,10.0,12.0,45,0.00,,,-99.99,,2013-05-03 15:53:00,
2013-05-03 10:03:00,34.0,16.0,-100.00,WNW,282,8.0,11.0,48,0.00,,,-99.99,,2013-05-03 16:03:00,
2013-05-03 10:12:00,34.0,15.0,-100.00,WNW,282,7.0,10.0,45,0.00,,,-99.99,,2013-05-03 16:12:00,
2013-05-03 10:22:00,34.0,15.0,-100.00,WNW,282,8.0,10.0,45,0.00,,,-99.99,,2013-05-03 16:22:00,
2013-05-03 10:32:00,35.0,15.0,-100.00,WNW,282,8.0,11.0,44,0.00,,,-99.99,,2013-05-03 16:32:00,
2013-05-03 10:42:00,35.0,16.0,-100.00,WNW,282,9.0,12.0,45,0.00,,,-99.99,,2013-05-03 16:42:00,
2013-05-03 10:52:00,35.0,16.0,-100.00,WNW,282,9.0,12.0,45,0.00,,,-99.99,,2013-05-03 16:52:00,
2013-05-03 11:02:00,36.0,17.0,-100.00,WNW,282,7.0,11.0,45,0.00,,,-99.99,,2013-05-03 17:02:00,
2013-05-03 11:12:00,36.0,16.0,-100.00,WNW,282,7.0,12.0,43,0.00,,,-99.99,,2013-05-03 17:12:00,
2013-05-03 11:23:00,36.0,15.0,-100.00,WNW,282,11.0,14.0,41,0.00,,,-99.99,,2013-05-03 17:23:00,
2013-05-03 11:32:00,37.0,14.0,-100.00,WNW,282,11.0,14.0,38,0.00,,,-99.99,,2013-05-03 17:32:00,
2013-05-03 11:42:00,37.0,14.0,-100.00,WNW,282,11.0,14.0,38,0.00,,,-99.99,,2013-05-03 17:42:00,
2013-05-03 11:51:00,38.0,16.0,-100.00,WNW,282,7.0,11.0,40,0.00,,,-99.99,,2013-05-03 17:51:00,
2013-05-03 12:01:00,39.0,14.0,-100.00,WNW,282,9.0,14.0,36,0.00,,,-99.99,,2013-05-03 18:01:00,
2013-05-03 12:12:00,39.0,14.0,-100.00,WNW,282,9.0,14.0,36,0.00,,,-99.99,,2013-05-03 18:12:00,
2013-05-03 12:21:00,40.0,16.0,-100.00,WNW,282,7.0,9.0,37,0.00,,,-99.99,,2013-05-03 18:21:00,
2013-05-03 12:32:00,40.0,15.0,-100.00,WNW,282,7.0,11.0,36,0.00,,,-99.99,,2013-05-03 18:32:00,
2013-05-03 12:42:00,40.0,17.0,-100.00,WNW,282,6.0,9.0,38,0.00,,,-99.99,,2013-05-03 18:42:00,
2013-05-03 12:51:00,41.0,16.0,-100.00,WNW,282,6.0,10.0,36,0.00,,,-99.99,,2013-05-03 18:51:00,
2013-05-03 13:01:00,40.0,14.0,-100.00,WNW,282,6.0,11.0,34,0.00,,,-99.99,,2013-05-03 19:01:00,
2013-05-03 13:11:00,41.0,16.0,-100.00,WNW,282,6.0,12.0,36,0.00,,,-99.99,,2013-05-03 19:11:00,
2013-05-03 13:21:00,41.0,17.0,-100.00,WNW,282,8.0,15.0,36,0.00,,,-99.99,,2013-05-03 19:21:00,
2013-05-03 13:32:00,42.0,15.0,-100.00,WNW,282,6.0,13.0,33,0.00,,,-99.99,,2013-05-03 19:32:00,
2013-05-03 13:41:00,43.0,17.0,-100.00,WNW,282,5.0,10.0,34,0.00,,,-99.99,,2013-05-03 19:41:00,
2013-05-03 13:52:00,42.0,15.0,-100.00,WNW,282,6.0,9.0,33,0.00,,,-99.99,,2013-05-03 19:52:00,
2013-05-03 14:02:00,41.0,18.0,-100.00,WNW,282,5.0,7.0,39,0.00,,,-99.99,,2013-05-03 20:02:00,
2013-05-03 14:11:00,42.0,16.0,-100.00,WNW,282,6.0,10.0,35,0.00,,,-99.99,,2013-05-03 20:11:00,
2013-05-03 14:21:00,41.0,18.0,-100.00,WNW,282,6.0,9.0,39,0.00,,,-99.99,,2013-05-03 20:21:00,
2013-05-03 14:31:00,41.0,17.0,-100.00,WNW,282,6.0,8.0,36,0.00,,,-99.99,,2013-05-03 20:31:00,
2013-05-03 14:41:00,42.0,15.0,-100.00,WNW,282,4.0,8.0,33,0.00,,,-99.99,,2013-05-03 20:41:00,
2013-05-03 14:52:00,44.0,17.0,-100.00,WNW,282,3.0,6.0,33,0.00,,,-99.99,,2013-05-03 20:52:00,
2013-05-03 15:01:00,43.0,16.0,-100.00,WNW,282,3.0,6.0,33,0.00,,,-99.99,,2013-05-03 21:01:00,
2013-05-03 15:11:00,44.0,17.0,-100.00,WNW,282,4.0,6.0,33,0.00,,,-99.99,,2013-05-03 21:11:00,
2013-05-03 15:21:00,43.0,20.0,-100.00,WNW,282,4.0,7.0,39,0.00,,,-99.99,,2013-05-03 21:21:00,
2013-05-03 15:33:00,43.0,16.0,-100.00,WNW,282,7.0,11.0,33,0.00,,,-99.99,,2013-05-03 21:33:00,
2013-05-03 15:42:00,42.0,15.0,-100.00,WNW,282,6.0,9.0,32,0.00,,,-99.99,,2013-05-03 21:42:00,
2013-05-03 15:52:00,43.0,16.0,-100.00,WNW,282,6.0,9.0,34,0.00,,,-99.99,,2013-05-03 21:52:00,
2013-05-03 16:02:00,44.0,15.0,-100.00,WNW,282,4.0,6.0,32,0.00,,,-99.99,,2013-05-03 22:02:00,
2013-05-03 16:12:00,44.0,16.0,-100.00,WNW,282,2.0,6.0,32,0.00,,,-99.99,,2013-05-03 22:12:00,
2013-05-03 16:22:00,43.0,18.0,-100.00,WNW,282,5.0,7.0,36,0.00,,,-99.99,,2013-05-03 22:22:00,
2013-05-03 16:32:00,44.0,19.0,-100.00,WNW,282,4.0,7.0,36,0.00,,,-99.99,,2013-05-03 22:32:00,
2013-05-03 16:42:00,44.0,17.0,-100.00,WNW,282,4.0,8.0,33,0.00,,,-99.99,,2013-05-03 22:42:00,
2013-05-03 16:52:00,44.0,18.0,-100.00,WNW,282,6.0,8.0,35,0.00,,,-99.99,,2013-05-03 22:52:00,
2013-05-03 17:01:00,41.0,23.0,-100.00,WNW,282,7.0,11.0,47,0.00,,,-99.99,,2013-05-03 23:01:00,
2013-05-03 17:11:00,41.0,21.0,-100.00,WNW,282,8.0,10.0,45,0.00,,,-99.99,,2013-05-03 23:11:00,
2013-05-03 17:21:00,40.0,22.0,-100.00,WNW,282,7.0,14.0,48,0.00,,,-99.99,,2013-05-03 23:21:00,
2013-05-03 17:31:00,39.0,21.0,-100.00,WNW,282,8.0,12.0,49,0.00,,,-99.99,,2013-05-03 23:31:00,
2013-05-03 17:41:00,38.0,22.0,-100.00,WNW,282,7.0,12.0,51,0.00,,,-99.99,,2013-05-03 23:41:00,
2013-05-03 17:51:00,38.0,20.0,-100.00,WNW,282,7.0,13.0,49,0.00,,,-99.99,,2013-05-03 23:51:00,
2013-05-03 18:01:00,38.0,19.0,-100.00,WNW,282,7.0,12.0,45,0.00,,,-99.99,,2013-05-04 00:01:00,
2013-05-03 18:11:00,39.0,22.0,-100.00,WNW,282,6.0,13.0,51,0.00,,,-99.99,,2013-05-04 00:11:00,
2013-05-03 18:22:00,38.0,20.0,-100.00,WNW,282,7.0,12.0,48,0.00,,,-99.99,,2013-05-04 00:22:00,
2013-05-03 18:31:00,39.0,21.0,-100.00,WNW,282,7.0,14.0,48,0.00,,,-99.99,,2013-05-04 00:31:00,
2013-05-03 18:41:00,39.0,21.0,-100.00,WNW,282,7.0,12.0,48,0.00,,,-99.99,,2013-05-04 00:41:00,
2013-05-03 18:52:00,38.0,20.0,-100.00,WNW,282,6.0,12.0,47,0.00,,,-99.99,,2013-05-04 00:52:00,
2013-05-03 19:01:00,38.0,20.0,-100.00,WNW,282,7.0,11.0,47,0.00,,,-99.99,,2013-05-04 01:01:00,
2013-05-03 19:11:00,38.0,20.0,-100.00,WNW,282,7.0,12.0,48,0.00,,,-99.99,,2013-05-04 01:11:00,
2013-05-03 19:21:00,37.0,20.0,-100.00,WNW,282,7.0,11.0,50,0.00,,,-99.99,,2013-05-04 01:21:00,
2013-05-03 19:31:00,37.0,20.0,-100.00,WNW,282,7.0,13.0,49,0.00,,,-99.99,,2013-05-04 01:31:00,
2013-05-03 19:41:00,37.0,20.0,-100.00,WNW,282,7.0,11.0,49,0.00,,,-99.99,,2013-05-04 01:41:00,
2013-05-03 19:52:00,37.0,21.0,-100.00,WNW,282,6.0,10.0,52,0.00,,,-99.99,,2013-05-04 01:52:00,
2013-05-03 20:02:00,36.0,22.0,-100.00,WNW,282,6.0,9.0,55,0.00,,,-99.99,,2013-05-04 02:02:00,
2013-05-03 20:11:00,36.0,21.0,-100.00,WNW,282,6.0,9.0,55,0.00,,,-99.99,,2013-05-04 02:11:00,
2013-05-03 20:21:00,36.0,21.0,-100.00,WNW,282,6.0,8.0,54,0.00,,,-99.99,,2013-05-04 02:21:00,
2013-05-03 20:32:00,36.0,20.0,-100.00,WNW,282,4.0,6.0,54,0.00,,,-99.99,,2013-05-04 02:32:00,
2013-05-03 20:41:00,35.0,21.0,-100.00,WNW,282,5.0,7.0,55,0.00,,,-99.99,,2013-05-04 02:41:00,
2013-05-03 20:52:00,35.0,21.0,-100.00,WNW,282,6.0,7.0,57,0.00,,,-99.99,,2013-05-04 02:52:00,
2013-05-03 21:02:00,35.0,21.0,-100.00,WNW,282,5.0,7.0,57,0.00,,,-99.99,,2013-05-04 03:02:00,
2013-05-03 21:11:00,35.0,20.0,-100.00,WNW,282,6.0,7.0,56,0.00,,,-99.99,,2013-05-04 03:11:00,
2013-05-03 21:21:00,35.0,20.0,-100.00,WNW,282,4.0,6.0,55,0.00,,,-99.99,,2013-05-04 03:21:00,
2013-05-03 21:33:00,35.0,19.0,-100.00,WNW,282,4.0,6.0,52,0.00,,,-99.99,,2013-05-04 03:33:00,
2013-05-03 21:43:00,35.0,20.0,-100.00,WNW,282,6.0,8.0,54,0.00,,,-99.99,,2013-05-04 03:43:00,
2013-05-03 21:52:00,34.0,20.0,-100.00,WNW,282,4.0,7.0,55,0.00,,,-99.99,,2013-05-04 03:52:00,
2013-05-03 22:02:00,34.0,19.0,-100.00,WNW,282,3.0,5.0,53,0.00,,,-99.99,,2013-05-04 04:02:00,
2013-05-03 22:12:00,33.0,20.0,-100.00,WNW,282,3.0,5.0,56,0.00,,,-99.99,,2013-05-04 04:12:00,
2013-05-03 22:22:00,35.0,17.0,-100.00,WNW,282,6.0,8.0,48,0.00,,,-99.99,,2013-05-04 04:22:00,
2013-05-03 22:32:00,34.0,18.0,-100.00,WNW,282,7.0,9.0,51,0.00,,,-99.99,,2013-05-04 04:32:00,
2013-05-03 22:42:00,34.0,17.0,-100.00,WNW,282,6.0,9.0,50,0.00,,,-99.99,,2013-05-04 04:42:00,
2013-05-03 22:52:00,35.0,17.0,-100.00,WNW,282,6.0,9.0,48,0.00,,,-99.99,,2013-05-04 04:52:00,
2013-05-03 23:02:00,35.0,17.0,-100.00,WNW,282,7.0,9.0,46,0.00,,,-99.99,,2013-05-04 05:02:00,
2013-05-03 23:11:00,35.0,17.0,-100.00,WNW,282,8.0,9.0,48,0.00,,,-99.99,,2013-05-04 05:11:00,
2013-05-03 23:22:00,35.0,18.0,-100.00,WNW,282,7.0,9.0,50,0.00,,,-99.99,,2013-05-04 05:22:00,
2013-05-03 23:32:00,34.0,18.0,-100.00,WNW,282,7.0,9.0,53,0.00,,,-99.99,,2013-05-04 05:32:00,
2013-05-03 23:42:00,33.0,18.0,-100.00,WNW,282,6.0,7.0,53,0.00,,,-99.99,,2013-05-04 05:42:00,
2013-05-03 23:52:00,33.0,18.0,-100.00,WNW,282,6.0,9.0,54,0.00,,,-99.99,,2013-05-04 05:52:00,